Time;durP1;ratioP1;P1;durP2;ratioP2;P2;SDS_P1;SDS_P2;PMS_P1;PMS_P2;Temp;Humidity;BMP_temperature;BMP_pressure;BME280_temperature;BME280_humidity;BME280_pressure;Samples;Min_cycle;Max_cycle;Signal;HPM_P1;HPM_P2
2023/12/04 00:01:26;;;;;;;25.83;14.57;;;;;;;;;;4969014;28;20876;-58
2023/12/04 00:03:52;;;;;;;27.65;15.02;;;;;;;;;;4971411;28;20025;-58
2023/12/04 00:06:19;;;;;;;27.13;15.55;;;;;;;;;;4970296;28;20161;-59
2023/12/04 00:08:45;;;;;;;26.33;14.70;;;;;;;;;;4970368;28;20098;-59
2023/12/04 00:11:11;;;;;;;26.77;14.55;;;;;;;;;;4970922;28;20077;-58
2023/12/04 00:13:37;;;;;;;26.25;14.30;;;;;;;;;;4971972;28;20100;-58
2023/12/04 00:16:03;;;;;;;27.27;15.68;;;;;;;;;;4970044;28;20031;-59
2023/12/04 00:18:29;;;;;;;25.52;14.32;;;;;;;;;;4970165;28;20517;-58
2023/12/04 00:20:56;;;;;;;27.42;14.98;;;;;;;;;;4970385;28;20025;-58
2023/12/04 00:23:22;;;;;;;27.00;14.73;;;;;;;;;;4970740;28;20037;-58
2023/12/04 00:25:48;;;;;;;28.92;15.00;;;;;;;;;;4971390;28;20038;-58
2023/12/04 00:28:14;;;;;;;26.00;14.50;;;;;;;;;;4971857;28;20048;-58
2023/12/04 00:30:40;;;;;;;25.48;14.10;;;;;;;;;;4972176;28;20901;-58
2023/12/04 00:33:06;;;;;;;29.55;14.77;;;;;;;;;;4985280;28;20129;-58
2023/12/04 00:35:32;;;;;;;26.95;14.35;;;;;;;;;;4970237;28;20284;-58
2023/12/04 00:37:58;;;;;;;28.00;15.38;;;;;;;;;;4970237;28;20116;-58
2023/12/04 00:40:24;;;;;;;25.52;15.13;;;;;;;;;;4969553;28;20033;-58
2023/12/04 00:42:51;;;;;;;27.95;15.48;;;;;;;;;;4969812;28;20035;-58
2023/12/04 00:45:17;;;;;;;25.58;14.82;;;;;;;;;;4970181;28;20055;-59
2023/12/04 00:47:43;;;;;;;25.77;15.30;;;;;;;;;;4974037;28;20073;-58
2023/12/04 00:50:09;;;;;;;24.58;14.57;;;;;;;;;;4973866;28;20105;-58
2023/12/04 00:52:35;;;;;;;28.02;16.42;;;;;;;;;;4974099;28;20037;-58
2023/12/04 00:55:01;;;;;;;26.50;15.80;;;;;;;;;;4973719;28;20061;-58
2023/12/04 00:57:27;;;;;;;27.55;15.73;;;;;;;;;;4974366;28;20033;-59
2023/12/04 00:59:53;;;;;;;24.92;14.55;;;;;;;;;;4974427;28;20089;-59
2023/12/04 01:02:19;;;;;;;29.52;16.30;;;;;;;;;;4975077;28;20061;-58
2023/12/04 01:04:45;;;;;;;28.40;15.85;;;;;;;;;;4975615;28;20033;-58
2023/12/04 01:07:11;;;;;;;26.98;15.73;;;;;;;;;;4974445;28;20042;-58
2023/12/04 01:09:38;;;;;;;26.77;15.00;;;;;;;;;;4973965;28;20034;-58
2023/12/04 01:12:04;;;;;;;24.27;15.13;;;;;;;;;;4973488;28;20580;-59
2023/12/04 01:14:30;;;;;;;25.88;15.00;;;;;;;;;;4975523;28;20049;-58
2023/12/04 01:16:56;;;;;;;26.60;15.27;;;;;;;;;;4972475;28;20063;-59
2023/12/04 01:19:22;;;;;;;25.15;15.43;;;;;;;;;;4973529;28;20030;-58
2023/12/04 01:21:49;;;;;;;29.42;15.68;;;;;;;;;;4972888;28;20129;-58
2023/12/04 01:24:15;;;;;;;26.80;16.02;;;;;;;;;;4972669;28;20049;-59
2023/12/04 01:26:42;;;;;;;27.35;15.52;;;;;;;;;;4973362;28;20043;-59
2023/12/04 01:29:08;;;;;;;26.10;14.60;;;;;;;;;;4973396;28;20084;-59
2023/12/04 01:31:34;;;;;;;26.60;15.10;;;;;;;;;;4974959;28;20030;-59
2023/12/04 01:34:00;;;;;;;27.40;15.48;;;;;;;;;;4973131;28;20140;-58
2023/12/04 01:36:26;;;;;;;27.10;15.32;;;;;;;;;;4973983;28;20440;-59
2023/12/04 01:38:52;;;;;;;25.85;14.88;;;;;;;;;;4973408;28;20916;-59
2023/12/04 01:41:18;;;;;;;25.42;15.20;;;;;;;;;;4972677;28;20026;-59
2023/12/04 01:43:44;;;;;;;27.98;15.65;;;;;;;;;;4974584;28;20038;-58
2023/12/04 01:46:10;;;;;;;25.05;15.00;;;;;;;;;;4973220;28;20065;-58
2023/12/04 01:48:37;;;;;;;24.60;14.95;;;;;;;;;;4973960;28;20042;-59
2023/12/04 01:51:06;;;;;;;24.92;13.52;;;;;;;;;;4971889;28;20026;-58
2023/12/04 01:53:33;;;;;;;23.98;14.25;;;;;;;;;;4973930;28;20042;-59
2023/12/04 01:55:59;;;;;;;24.70;15.02;;;;;;;;;;4973040;28;20038;-59
2023/12/04 01:58:25;;;;;;;22.38;13.35;;;;;;;;;;4972531;28;20034;-59
2023/12/04 02:00:51;;;;;;;24.75;14.88;;;;;;;;;;4973972;28;20749;-59
2023/12/04 02:03:17;;;;;;;22.95;13.88;;;;;;;;;;4973080;28;20639;-59
2023/12/04 02:05:46;;;;;;;24.00;13.80;;;;;;;;;;4972822;28;21480;-59
2023/12/04 02:08:12;;;;;;;24.27;13.90;;;;;;;;;;4971297;28;20367;-58
2023/12/04 02:10:39;;;;;;;23.33;13.45;;;;;;;;;;4973204;28;20034;-58
2023/12/04 02:13:05;;;;;;;24.40;13.65;;;;;;;;;;4972276;28;20042;-58
2023/12/04 02:15:31;;;;;;;23.45;13.73;;;;;;;;;;4973743;28;20038;-57
2023/12/04 02:17:57;;;;;;;21.70;13.35;;;;;;;;;;4972398;28;20070;-58
2023/12/04 02:20:32;;;;;;;22.27;13.57;;;;;;;;;;4972147;28;20076;-58
2023/12/04 02:22:58;;;;;;;22.45;12.68;;;;;;;;;;4972209;28;20030;-58
2023/12/04 02:25:24;;;;;;;21.83;13.93;;;;;;;;;;4971218;28;20045;-59
2023/12/04 02:27:51;;;;;;;24.58;13.93;;;;;;;;;;4971591;28;21867;-58
2023/12/04 02:30:18;;;;;;;21.08;13.00;;;;;;;;;;4973300;28;20031;-59
2023/12/04 02:32:46;;;;;;;22.35;13.13;;;;;;;;;;4973956;28;20837;-58
2023/12/04 02:35:12;;;;;;;21.42;12.52;;;;;;;;;;4972450;28;20073;-58
2023/12/04 02:37:39;;;;;;;23.08;13.55;;;;;;;;;;4972809;28;20033;-59
2023/12/04 02:40:06;;;;;;;21.45;13.18;;;;;;;;;;4971890;28;20030;-58
2023/12/04 02:42:32;;;;;;;20.63;13.32;;;;;;;;;;4972644;28;20030;-58
2023/12/04 02:44:58;;;;;;;22.75;12.63;;;;;;;;;;4972452;28;20034;-58
2023/12/04 02:47:24;;;;;;;23.98;13.65;;;;;;;;;;4972486;28;20053;-59
2023/12/04 02:49:51;;;;;;;22.67;12.95;;;;;;;;;;4972415;28;20434;-58
2023/12/04 02:52:17;;;;;;;22.92;13.35;;;;;;;;;;4972877;28;20049;-58
2023/12/04 02:54:43;;;;;;;24.10;13.75;;;;;;;;;;4971546;28;20712;-58
2023/12/04 02:57:09;;;;;;;23.15;13.55;;;;;;;;;;4971486;28;20804;-59
2023/12/04 02:59:35;;;;;;;23.33;13.18;;;;;;;;;;4973366;28;20031;-58
2023/12/04 03:02:01;;;;;;;22.48;13.25;;;;;;;;;;4972488;28;20046;-59
2023/12/04 03:04:29;;;;;;;22.10;13.77;;;;;;;;;;4970305;28;20030;-58
2023/12/04 03:06:55;;;;;;;22.73;13.05;;;;;;;;;;4972392;28;20136;-58
2023/12/04 03:09:22;;;;;;;23.98;13.75;;;;;;;;;;4971862;28;20042;-59
2023/12/04 03:11:48;;;;;;;21.13;12.82;;;;;;;;;;4972206;28;20077;-59
2023/12/04 03:14:14;;;;;;;22.00;12.63;;;;;;;;;;4971728;28;20039;-58
2023/12/04 03:16:40;;;;;;;23.05;13.63;;;;;;;;;;4971797;28;20180;-58
2023/12/04 03:19:06;;;;;;;22.60;13.80;;;;;;;;;;4972179;28;20038;-58
2023/12/04 03:21:32;;;;;;;22.20;12.88;;;;;;;;;;4969209;28;20756;-58
2023/12/04 03:23:58;;;;;;;24.88;14.77;;;;;;;;;;4971856;28;20524;-58
2023/12/04 03:26:24;;;;;;;25.02;14.18;;;;;;;;;;4971589;28;20038;-58
2023/12/04 03:28:50;;;;;;;25.92;14.93;;;;;;;;;;4971553;28;20042;-58
2023/12/04 03:31:16;;;;;;;22.05;13.02;;;;;;;;;;4972098;28;20046;-58
2023/12/04 03:33:42;;;;;;;22.33;13.43;;;;;;;;;;4972100;28;20045;-58
2023/12/04 03:36:09;;;;;;;24.02;14.15;;;;;;;;;;4970447;28;20048;-58
2023/12/04 03:38:35;;;;;;;24.10;14.38;;;;;;;;;;4971149;28;20057;-58
2023/12/04 03:41:01;;;;;;;24.65;13.30;;;;;;;;;;4972032;28;20099;-58
2023/12/04 03:43:27;;;;;;;23.38;13.32;;;;;;;;;;4973246;28;20026;-58
2023/12/04 03:45:53;;;;;;;25.13;13.50;;;;;;;;;;4970348;28;20059;-59
2023/12/04 03:48:19;;;;;;;26.25;15.40;;;;;;;;;;4972890;28;20031;-58
2023/12/04 03:50:45;;;;;;;26.92;15.45;;;;;;;;;;4971259;28;20053;-58
2023/12/04 03:53:11;;;;;;;25.90;13.93;;;;;;;;;;4970811;28;20039;-58
2023/12/04 03:55:37;;;;;;;25.77;14.18;;;;;;;;;;4971336;28;20042;-59
2023/12/04 03:58:03;;;;;;;23.75;13.63;;;;;;;;;;4971053;28;20047;-58
2023/12/04 04:00:29;;;;;;;27.85;16.27;;;;;;;;;;4972954;28;20113;-58
2023/12/04 04:02:55;;;;;;;24.33;13.75;;;;;;;;;;4970251;28;20030;-59
2023/12/04 04:05:21;;;;;;;24.85;14.13;;;;;;;;;;4972332;28;20038;-58
2023/12/04 04:07:47;;;;;;;22.17;12.50;;;;;;;;;;4970812;28;20042;-59
2023/12/04 04:10:14;;;;;;;23.70;14.30;;;;;;;;;;4972158;28;20796;-58
2023/12/04 04:12:40;;;;;;;21.85;12.75;;;;;;;;;;4970229;28;20405;-58
2023/12/04 04:15:06;;;;;;;25.23;14.25;;;;;;;;;;4971443;28;20573;-58
2023/12/04 04:17:33;;;;;;;26.13;14.73;;;;;;;;;;4970753;28;20094;-59
2023/12/04 04:19:59;;;;;;;25.92;14.70;;;;;;;;;;4970363;28;20972;-59
2023/12/04 04:22:26;;;;;;;25.98;15.45;;;;;;;;;;4975224;28;20115;-58
2023/12/04 04:24:52;;;;;;;26.10;14.35;;;;;;;;;;4973383;28;20084;-59
2023/12/04 04:27:18;;;;;;;24.33;14.13;;;;;;;;;;4974491;28;20054;-59
2023/12/04 04:29:44;;;;;;;25.58;14.32;;;;;;;;;;4975614;28;20067;-58
2023/12/04 04:32:10;;;;;;;24.33;13.57;;;;;;;;;;4974646;28;20058;-58
2023/12/04 04:34:36;;;;;;;22.83;12.98;;;;;;;;;;4975981;28;20035;-58
2023/12/04 04:37:02;;;;;;;23.58;13.40;;;;;;;;;;4974973;28;20038;-59
2023/12/04 04:39:28;;;;;;;21.45;13.32;;;;;;;;;;4975689;28;20034;-58
2023/12/04 04:41:55;;;;;;;26.48;14.15;;;;;;;;;;4974406;28;20125;-59
2023/12/04 04:44:21;;;;;;;27.08;14.13;;;;;;;;;;4974503;28;20758;-58
2023/12/04 04:46:47;;;;;;;26.17;13.68;;;;;;;;;;4975362;28;20561;-58
2023/12/04 04:49:13;;;;;;;22.20;14.05;;;;;;;;;;4974694;28;20508;-59
2023/12/04 04:51:39;;;;;;;24.50;12.50;;;;;;;;;;4975155;28;20569;-58
2023/12/04 04:54:05;;;;;;;24.40;13.93;;;;;;;;;;4974331;28;21844;-59
2023/12/04 04:56:31;;;;;;;24.70;13.07;;;;;;;;;;4974994;28;20049;-59
2023/12/04 04:58:58;;;;;;;22.88;13.20;;;;;;;;;;4974409;28;20038;-58
2023/12/04 05:01:24;;;;;;;22.65;13.10;;;;;;;;;;4973950;28;20774;-58
2023/12/04 05:03:50;;;;;;;25.40;13.52;;;;;;;;;;4973423;28;20049;-58
2023/12/04 05:06:16;;;;;;;25.30;13.90;;;;;;;;;;4975054;28;20351;-59
2023/12/04 05:08:42;;;;;;;25.98;13.90;;;;;;;;;;4974738;28;20092;-59
2023/12/04 05:11:08;;;;;;;23.85;12.82;;;;;;;;;;4974584;28;20093;-58
2023/12/04 05:13:34;;;;;;;23.35;13.10;;;;;;;;;;4973821;28;20042;-59
2023/12/04 05:16:00;;;;;;;24.77;13.70;;;;;;;;;;4974903;28;20038;-58
2023/12/04 05:18:26;;;;;;;22.95;12.82;;;;;;;;;;4973674;28;20051;-58
2023/12/04 05:20:52;;;;;;;21.67;12.50;;;;;;;;;;4988864;28;20037;-58
2023/12/04 05:23:18;;;;;;;22.15;13.63;;;;;;;;;;4973553;28;20069;-58
2023/12/04 05:25:44;;;;;;;24.10;13.52;;;;;;;;;;4973015;28;20027;-59
2023/12/04 05:28:10;;;;;;;25.50;12.57;;;;;;;;;;4972939;28;20030;-59
2023/12/04 05:30:36;;;;;;;22.70;12.50;;;;;;;;;;4973981;28;20042;-59
2023/12/04 05:33:02;;;;;;;23.17;13.85;;;;;;;;;;4972970;28;20045;-58
2023/12/04 05:35:28;;;;;;;25.02;13.75;;;;;;;;;;4973534;28;20581;-59
2023/12/04 05:37:54;;;;;;;23.15;12.65;;;;;;;;;;4973554;28;20592;-58
2023/12/04 05:40:20;;;;;;;20.55;11.70;;;;;;;;;;4973089;28;21508;-58
2023/12/04 05:42:46;;;;;;;23.75;13.25;;;;;;;;;;4972729;28;20520;-58
2023/12/04 05:45:12;;;;;;;22.75;11.82;;;;;;;;;;4973863;28;21014;-58
2023/12/04 05:47:38;;;;;;;20.60;12.15;;;;;;;;;;4973011;28;20070;-58
2023/12/04 05:50:05;;;;;;;23.13;12.57;;;;;;;;;;4974010;28;20042;-59
2023/12/04 05:52:31;;;;;;;22.85;11.73;;;;;;;;;;4971844;28;20169;-58
2023/12/04 05:54:57;;;;;;;22.83;13.02;;;;;;;;;;4972146;28;20156;-58
2023/12/04 05:57:23;;;;;;;22.02;12.65;;;;;;;;;;4973679;28;20101;-58
2023/12/04 05:59:49;;;;;;;25.50;12.90;;;;;;;;;;4972282;28;20078;-58
2023/12/04 06:02:15;;;;;;;21.50;11.73;;;;;;;;;;4971265;28;20022;-59
2023/12/04 06:04:41;;;;;;;21.50;12.73;;;;;;;;;;4972565;28;20027;-58
2023/12/04 06:07:07;;;;;;;20.75;11.35;;;;;;;;;;4973344;28;20045;-58
2023/12/04 06:09:36;;;;;;;23.02;12.80;;;;;;;;;;4972081;28;20041;-58
2023/12/04 06:12:07;;;;;;;23.67;11.90;;;;;;;;;;4971720;28;20031;-58
2023/12/04 06:14:33;;;;;;;21.70;12.52;;;;;;;;;;4973579;28;20503;-59
2023/12/04 06:17:00;;;;;;;20.95;11.82;;;;;;;;;;4971105;28;20149;-58
2023/12/04 06:19:26;;;;;;;20.25;12.68;;;;;;;;;;4971676;28;20045;-58
2023/12/04 06:21:52;;;;;;;21.13;11.40;;;;;;;;;;4971774;28;20046;-59
2023/12/04 06:24:19;;;;;;;23.23;12.35;;;;;;;;;;4969588;28;20042;-59
2023/12/04 06:26:48;;;;;;;24.52;12.95;;;;;;;;;;4972360;28;20030;-58
2023/12/04 06:29:14;;;;;;;20.35;12.02;;;;;;;;;;4972579;28;20060;-58
2023/12/04 06:31:41;;;;;;;22.92;12.32;;;;;;;;;;4973023;28;20046;-59
2023/12/04 06:34:07;;;;;;;22.60;12.65;;;;;;;;;;4973012;28;20049;-59
2023/12/04 06:36:36;;;;;;;21.90;12.32;;;;;;;;;;4973971;28;20038;-59
2023/12/04 06:39:04;;;;;;;23.63;12.30;;;;;;;;;;4972084;28;20030;-58
2023/12/04 06:41:30;;;;;;;21.25;12.00;;;;;;;;;;4971083;28;20563;-59
2023/12/04 06:43:57;;;;;;;23.10;12.25;;;;;;;;;;4971403;28;20066;-58
2023/12/04 06:46:24;;;;;;;20.10;11.32;;;;;;;;;;4972784;28;20085;-59
2023/12/04 06:48:52;;;;;;;20.08;11.35;;;;;;;;;;4971845;28;20052;-58
2023/12/04 06:51:18;;;;;;;20.33;11.25;;;;;;;;;;4969903;28;20030;-58
2023/12/04 06:53:44;;;;;;;21.17;12.02;;;;;;;;;;4970400;28;20068;-59
2023/12/04 06:56:10;;;;;;;19.88;11.65;;;;;;;;;;4971737;28;20045;-59
2023/12/04 06:58:36;;;;;;;19.40;11.25;;;;;;;;;;4971244;28;20073;-59
2023/12/04 07:01:03;;;;;;;18.25;10.40;;;;;;;;;;4972390;28;20030;-59
2023/12/04 07:03:29;;;;;;;20.20;11.93;;;;;;;;;;4971809;28;20034;-58
2023/12/04 07:05:55;;;;;;;20.15;11.35;;;;;;;;;;4972227;28;20043;-58
2023/12/04 07:08:21;;;;;;;20.65;11.43;;;;;;;;;;4971769;28;20479;-58
2023/12/04 07:10:47;;;;;;;19.23;11.25;;;;;;;;;;4972134;28;20046;-58
2023/12/04 07:13:13;;;;;;;19.42;10.75;;;;;;;;;;4971677;28;20050;-58
2023/12/04 07:15:39;;;;;;;21.00;11.25;;;;;;;;;;4971373;28;20054;-58
2023/12/04 07:18:05;;;;;;;19.38;11.27;;;;;;;;;;4971344;28;20052;-59
2023/12/04 07:20:31;;;;;;;18.38;11.13;;;;;;;;;;4972086;28;20045;-58
2023/12/04 07:22:58;;;;;;;20.33;11.68;;;;;;;;;;4970867;28;20122;-58
2023/12/04 07:25:24;;;;;;;22.48;11.30;;;;;;;;;;4970580;28;20038;-58
2023/12/04 07:27:50;;;;;;;20.45;11.32;;;;;;;;;;4972100;28;20034;-58
2023/12/04 07:30:16;;;;;;;17.90;10.70;;;;;;;;;;4972371;28;20054;-58
2023/12/04 07:32:42;;;;;;;18.85;10.77;;;;;;;;;;4971338;28;20865;-58
2023/12/04 07:35:08;;;;;;;18.92;10.40;;;;;;;;;;4971011;28;20070;-59
2023/12/04 07:37:34;;;;;;;19.73;10.57;;;;;;;;;;4971175;28;20042;-58
2023/12/04 07:42:16;;;;;;;16.77;10.13;;;;;;;;;;5020983;28;20537;-57
2023/12/04 07:44:42;;;;;;;18.95;11.75;;;;;;;;;;5014093;28;21051;-57
2023/12/04 07:47:08;;;;;;;19.05;11.13;;;;;;;;;;5013814;28;20069;-57
2023/12/04 07:49:35;;;;;;;18.75;11.30;;;;;;;;;;5012871;28;20091;-58
2023/12/04 07:52:01;;;;;;;20.35;11.25;;;;;;;;;;5012599;28;20119;-57
2023/12/04 07:54:27;;;;;;;20.58;11.15;;;;;;;;;;5012071;28;20026;-58
2023/12/04 07:56:53;;;;;;;18.13;10.35;;;;;;;;;;5010815;28;20033;-57
2023/12/04 07:59:19;;;;;;;19.75;10.45;;;;;;;;;;5012499;28;20083;-57
2023/12/04 08:01:45;;;;;;;20.88;11.07;;;;;;;;;;5012989;28;20068;-57
2023/12/04 08:04:11;;;;;;;18.05;10.13;;;;;;;;;;5012890;28;20034;-58
2023/12/04 08:06:38;;;;;;;20.40;10.05;;;;;;;;;;5013165;28;20029;-58
2023/12/04 08:09:09;;;;;;;15.68;9.25;;;;;;;;;;5006098;28;20482;-58
2023/12/04 08:11:35;;;;;;;21.15;10.75;;;;;;;;;;5002627;28;20881;-59
2023/12/04 08:14:01;;;;;;;18.27;10.27;;;;;;;;;;5000683;28;20022;-58
2023/12/04 08:16:28;;;;;;;17.33;9.95;;;;;;;;;;5004902;28;20037;-58
2023/12/04 08:18:54;;;;;;;16.05;9.50;;;;;;;;;;5003897;28;20033;-58
2023/12/04 08:21:21;;;;;;;18.85;10.23;;;;;;;;;;5003723;28;20041;-59
2023/12/04 08:23:47;;;;;;;20.40;10.95;;;;;;;;;;5003934;28;20469;-58
2023/12/04 08:26:13;;;;;;;13.65;8.50;;;;;;;;;;5003864;28;20038;-58
2023/12/04 08:28:41;;;;;;;17.35;9.25;;;;;;;;;;5005605;28;20041;-58
2023/12/04 08:31:10;;;;;;;16.92;9.75;;;;;;;;;;5005107;28;20763;-58
2023/12/04 08:33:36;;;;;;;16.58;9.43;;;;;;;;;;5006261;28;20037;-58
2023/12/04 08:36:02;;;;;;;16.83;9.20;;;;;;;;;;5004691;28;20041;-59
2023/12/04 08:38:28;;;;;;;16.98;9.55;;;;;;;;;;5005324;28;20052;-59
2023/12/04 08:40:54;;;;;;;19.00;10.00;;;;;;;;;;5008186;28;20061;-59
2023/12/04 08:43:20;;;;;;;14.50;8.68;;;;;;;;;;5005089;28;21866;-58
2023/12/04 08:45:46;;;;;;;16.40;8.25;;;;;;;;;;5004822;28;20034;-58
2023/12/04 08:48:12;;;;;;;17.77;8.35;;;;;;;;;;5004611;28;20111;-58
2023/12/04 08:50:38;;;;;;;15.38;8.13;;;;;;;;;;5004733;28;20049;-58
2023/12/04 08:53:05;;;;;;;13.15;7.97;;;;;;;;;;4994858;28;20026;-58
2023/12/04 08:55:31;;;;;;;16.02;8.60;;;;;;;;;;4992827;28;20168;-59
2023/12/04 08:57:57;;;;;;;15.77;8.20;;;;;;;;;;4991120;28;20243;-58
2023/12/04 09:00:23;;;;;;;14.40;8.32;;;;;;;;;;4994243;28;20048;-59
2023/12/04 09:02:49;;;;;;;13.43;7.07;;;;;;;;;;4991902;28;20026;-59
2023/12/04 09:05:16;;;;;;;16.80;8.20;;;;;;;;;;4992132;28;20034;-58
2023/12/04 09:07:42;;;;;;;14.45;8.32;;;;;;;;;;4990202;28;20061;-58
2023/12/04 09:10:09;;;;;;;15.05;7.90;;;;;;;;;;4991004;28;20025;-58
2023/12/04 09:12:36;;;;;;;12.70;7.80;;;;;;;;;;4991147;28;20034;-58
2023/12/04 09:15:03;;;;;;;15.15;8.90;;;;;;;;;;4989656;28;20056;-59
2023/12/04 09:17:29;;;;;;;15.13;8.52;;;;;;;;;;4990516;28;20412;-58
2023/12/04 09:19:55;;;;;;;18.25;8.25;;;;;;;;;;4990389;28;20160;-59
2023/12/04 09:22:21;;;;;;;14.32;8.15;;;;;;;;;;4990912;28;20183;-59
2023/12/04 09:24:47;;;;;;;14.30;8.05;;;;;;;;;;4990875;28;20167;-58
2023/12/04 09:27:13;;;;;;;14.35;8.18;;;;;;;;;;4995768;28;20035;-59
2023/12/04 09:29:39;;;;;;;14.52;8.07;;;;;;;;;;4999379;28;20059;-59
2023/12/04 09:32:05;;;;;;;15.35;8.23;;;;;;;;;;4997852;28;20029;-58
2023/12/04 09:34:31;;;;;;;15.20;8.30;;;;;;;;;;4997660;28;20610;-58
2023/12/04 09:36:57;;;;;;;16.60;8.18;;;;;;;;;;5008034;28;20030;-58
2023/12/04 09:39:24;;;;;;;14.18;7.78;;;;;;;;;;4998930;28;20048;-58
2023/12/04 09:41:51;;;;;;;14.95;8.00;;;;;;;;;;4998661;28;20054;-58
2023/12/04 09:44:18;;;;;;;20.45;7.47;;;;;;;;;;4998921;28;20536;-58
2023/12/04 09:46:44;;;;;;;13.18;7.38;;;;;;;;;;4999573;28;20080;-59
2023/12/04 09:49:10;;;;;;;13.43;7.80;;;;;;;;;;4998879;28;20132;-59
2023/12/04 09:51:38;;;;;;;14.23;7.93;;;;;;;;;;4999291;28;20037;-59
2023/12/04 09:54:04;;;;;;;11.93;6.63;;;;;;;;;;4999155;28;20034;-59
2023/12/04 09:56:30;;;;;;;14.70;7.93;;;;;;;;;;4999743;28;20480;-58
2023/12/04 09:59:00;;;;;;;12.48;7.28;;;;;;;;;;4999065;28;20706;-58
2023/12/04 10:01:29;;;;;;;13.90;7.35;;;;;;;;;;5003956;28;20389;-59
2023/12/04 10:03:57;;;;;;;12.65;6.93;;;;;;;;;;4996411;28;20059;-59
2023/12/04 10:06:24;;;;;;;15.00;7.53;;;;;;;;;;4998251;28;20025;-59
2023/12/04 10:08:50;;;;;;;13.60;7.10;;;;;;;;;;4997591;28;20030;-59
2023/12/04 10:11:16;;;;;;;12.13;6.75;;;;;;;;;;4997745;28;21816;-58
2023/12/04 10:13:43;;;;;;;14.95;6.88;;;;;;;;;;4998662;28;21925;-58
2023/12/04 10:16:09;;;;;;;11.25;6.55;;;;;;;;;;4999099;28;20037;-58
2023/12/04 10:18:35;;;;;;;12.23;6.53;;;;;;;;;;4999036;28;20029;-58
2023/12/04 10:21:07;;;;;;;11.38;6.53;;;;;;;;;;4998955;28;21531;-59
2023/12/04 10:23:37;;;;;;;12.50;6.22;;;;;;;;;;4999363;28;20734;-59
2023/12/04 10:26:04;;;;;;;12.32;6.75;;;;;;;;;;4999659;28;20025;-58
2023/12/04 10:28:30;;;;;;;12.10;6.75;;;;;;;;;;4999275;28;20042;-58
2023/12/04 10:30:56;;;;;;;12.48;6.53;;;;;;;;;;4999122;28;20021;-58
2023/12/04 10:33:28;;;;;;;12.15;7.07;;;;;;;;;;4999097;28;20033;-59
2023/12/04 10:35:55;;;;;;;12.43;6.75;;;;;;;;;;5000085;28;20428;-58
2023/12/04 10:38:21;;;;;;;11.35;6.47;;;;;;;;;;4999679;28;20095;-59
2023/12/04 10:40:47;;;;;;;13.57;6.78;;;;;;;;;;4998530;28;20081;-58
2023/12/04 10:43:17;;;;;;;11.40;6.55;;;;;;;;;;4999092;28;20124;-59
2023/12/04 10:45:45;;;;;;;11.68;6.85;;;;;;;;;;4998686;28;20065;-58
2023/12/04 10:48:11;;;;;;;11.85;6.50;;;;;;;;;;4999152;28;20038;-58
2023/12/04 10:50:38;;;;;;;11.57;6.68;;;;;;;;;;4998533;28;21772;-59
2023/12/04 10:53:09;;;;;;;11.93;6.45;;;;;;;;;;4999190;28;20056;-58
2023/12/04 10:55:35;;;;;;;12.23;7.05;;;;;;;;;;4998417;28;20053;-58
2023/12/04 10:58:03;;;;;;;12.65;7.45;;;;;;;;;;4998920;28;20823;-59
2023/12/04 11:00:31;;;;;;;11.60;6.45;;;;;;;;;;4998531;28;20595;-59
2023/12/04 11:02:59;;;;;;;11.90;6.80;;;;;;;;;;4998572;28;20147;-58
2023/12/04 11:05:25;;;;;;;11.43;6.65;;;;;;;;;;4999013;28;20133;-59
2023/12/04 11:07:52;;;;;;;11.13;6.20;;;;;;;;;;4997676;28;20034;-59
2023/12/04 11:10:20;;;;;;;12.02;6.60;;;;;;;;;;4998710;28;20121;-59
2023/12/04 11:12:48;;;;;;;11.50;6.10;;;;;;;;;;4998461;28;20107;-59
2023/12/04 11:15:17;;;;;;;10.70;5.88;;;;;;;;;;4998062;28;20043;-59
2023/12/04 11:17:43;;;;;;;13.52;6.70;;;;;;;;;;4998665;28;20026;-58
2023/12/04 11:20:16;;;;;;;11.60;6.68;;;;;;;;;;4998102;28;20129;-58
2023/12/04 11:22:42;;;;;;;12.25;6.47;;;;;;;;;;4998376;28;20157;-59
2023/12/04 11:25:09;;;;;;;10.95;6.18;;;;;;;;;;4997830;28;20051;-58
2023/12/04 11:27:36;;;;;;;14.82;6.45;;;;;;;;;;4998636;28;20042;-58
2023/12/04 11:30:06;;;;;;;11.85;6.25;;;;;;;;;;4998184;28;20026;-58
2023/12/04 11:32:32;;;;;;;9.60;5.60;;;;;;;;;;4998100;28;20053;-58
2023/12/04 11:35:02;;;;;;;9.98;5.45;;;;;;;;;;4998169;28;20052;-58
2023/12/04 11:37:28;;;;;;;12.43;6.85;;;;;;;;;;4996487;28;20037;-58
2023/12/04 11:39:55;;;;;;;10.75;5.65;;;;;;;;;;4998382;28;20470;-58
2023/12/04 11:42:25;;;;;;;12.10;6.13;;;;;;;;;;4998075;28;20037;-58
2023/12/04 11:44:58;;;;;;;10.23;5.65;;;;;;;;;;4998149;28;20041;-58
2023/12/04 11:47:24;;;;;;;9.63;5.07;;;;;;;;;;4998209;28;20412;-58
2023/12/04 11:49:50;;;;;;;11.52;6.07;;;;;;;;;;4997792;28;20037;-58
2023/12/04 11:52:16;;;;;;;10.45;5.72;;;;;;;;;;4998405;28;20037;-58
2023/12/04 11:55:05;;;;;;;10.20;5.85;;;;;;;;;;4997674;28;20042;-58
2023/12/04 11:57:40;;;;;;;10.68;5.90;;;;;;;;;;4997690;28;20048;-58
2023/12/04 12:00:10;;;;;;;12.13;6.55;;;;;;;;;;4997865;28;20034;-58
2023/12/04 12:02:36;;;;;;;9.82;5.55;;;;;;;;;;4995528;28;20170;-58
2023/12/04 12:05:02;;;;;;;10.18;5.65;;;;;;;;;;4998055;28;20041;-58
2023/12/04 12:07:28;;;;;;;10.00;6.00;;;;;;;;;;4997474;28;20037;-58
2023/12/04 12:09:55;;;;;;;11.30;6.05;;;;;;;;;;4997505;28;20026;-58
2023/12/04 12:12:21;;;;;;;10.73;5.78;;;;;;;;;;4998220;28;20045;-58
2023/12/04 12:14:47;;;;;;;10.80;5.90;;;;;;;;;;4996801;28;20041;-58
2023/12/04 12:17:14;;;;;;;10.05;6.00;;;;;;;;;;4997235;28;20041;-58
2023/12/04 12:19:40;;;;;;;12.30;6.97;;;;;;;;;;4997599;28;20042;-58
2023/12/04 12:22:06;;;;;;;10.68;5.25;;;;;;;;;;4997326;28;20125;-58
2023/12/04 12:24:32;;;;;;;12.98;7.30;;;;;;;;;;4997334;28;20061;-58
2023/12/04 12:26:58;;;;;;;10.73;5.80;;;;;;;;;;4997327;28;20040;-58
2023/12/04 12:29:24;;;;;;;10.65;6.22;;;;;;;;;;5001401;28;20034;-58
2023/12/04 12:31:51;;;;;;;14.38;5.78;;;;;;;;;;5001277;28;20045;-58
2023/12/04 12:34:17;;;;;;;10.80;6.25;;;;;;;;;;5001392;28;20038;-58
2023/12/04 12:36:43;;;;;;;10.90;6.22;;;;;;;;;;4999965;28;20080;-58
2023/12/04 12:39:09;;;;;;;10.95;6.25;;;;;;;;;;5001101;28;20084;-58
2023/12/04 12:41:36;;;;;;;10.45;5.97;;;;;;;;;;4999614;28;20123;-58
2023/12/04 12:44:03;;;;;;;10.90;6.40;;;;;;;;;;4999321;28;20040;-58
2023/12/04 12:46:29;;;;;;;10.93;6.47;;;;;;;;;;5000957;28;20966;-58
2023/12/04 12:48:55;;;;;;;12.52;6.35;;;;;;;;;;5000877;28;20080;-58
2023/12/04 12:51:21;;;;;;;10.93;6.30;;;;;;;;;;4992498;28;20046;-58
2023/12/04 12:53:48;;;;;;;12.18;6.25;;;;;;;;;;4991020;28;21469;-58
2023/12/04 12:56:14;;;;;;;10.40;5.97;;;;;;;;;;4991912;28;20091;-58
2023/12/04 12:58:42;;;;;;;10.77;6.15;;;;;;;;;;4992869;28;20030;-58
2023/12/04 13:01:11;;;;;;;11.10;6.40;;;;;;;;;;4995167;28;20127;-58
2023/12/04 13:03:37;;;;;;;13.82;6.07;;;;;;;;;;4991384;28;20041;-58
2023/12/04 13:06:05;;;;;;;11.23;6.72;;;;;;;;;;4993269;28;20041;-58
2023/12/04 13:08:31;;;;;;;12.43;6.72;;;;;;;;;;4993846;28;20030;-58
2023/12/04 13:10:57;;;;;;;11.00;6.57;;;;;;;;;;4992613;28;20585;-58
2023/12/04 13:13:23;;;;;;;11.55;6.57;;;;;;;;;;4993190;28;20161;-58
2023/12/04 13:15:49;;;;;;;10.65;6.20;;;;;;;;;;4992275;28;20045;-58
2023/12/04 13:18:15;;;;;;;11.02;6.45;;;;;;;;;;4992369;28;20030;-58
2023/12/04 13:20:43;;;;;;;12.43;6.50;;;;;;;;;;4991827;28;20041;-58
2023/12/04 13:23:09;;;;;;;11.25;6.57;;;;;;;;;;4993413;28;20125;-58
2023/12/04 13:25:35;;;;;;;12.00;7.22;;;;;;;;;;4993099;28;20033;-58
2023/12/04 13:28:01;;;;;;;10.18;6.07;;;;;;;;;;4993691;28;20033;-58
2023/12/04 13:30:27;;;;;;;13.07;6.68;;;;;;;;;;4991202;28;20037;-58
2023/12/04 13:32:53;;;;;;;11.57;7.25;;;;;;;;;;4992769;28;20044;-58
2023/12/04 13:35:19;;;;;;;11.90;6.88;;;;;;;;;;4993063;28;20034;-58
2023/12/04 13:37:45;;;;;;;10.73;5.97;;;;;;;;;;4992537;28;20128;-58
2023/12/04 13:40:16;;;;;;;11.48;6.97;;;;;;;;;;4992845;28;20045;-59
2023/12/04 13:45:27;;;;;;;11.30;6.40;;;;;;;;;;4992334;28;20028;-58
2023/12/04 13:47:53;;;;;;;10.63;5.53;;;;;;;;;;4991545;28;20119;-58
2023/12/04 13:50:19;;;;;;;11.27;6.13;;;;;;;;;;4992564;28;20025;-59
2023/12/04 13:52:52;;;;;;;11.38;6.75;;;;;;;;;;4991250;28;20594;-58
2023/12/04 13:55:36;;;;;;;12.27;6.80;;;;;;;;;;4992352;28;20091;-59
2023/12/04 14:00:28;;;;;;;14.70;7.60;;;;;;;;;;4992026;28;20097;-58
2023/12/04 14:03:00;;;;;;;12.50;7.53;;;;;;;;;;4990008;28;20034;-58
2023/12/04 14:05:26;;;;;;;12.10;7.55;;;;;;;;;;4992105;28;20635;-58
2023/12/04 14:07:52;;;;;;;13.32;7.22;;;;;;;;;;4992107;28;20025;-59
2023/12/04 14:10:18;;;;;;;11.30;6.55;;;;;;;;;;4990594;28;20028;-59
2023/12/04 14:12:44;;;;;;;12.88;6.68;;;;;;;;;;4991133;28;20036;-58
2023/12/04 14:15:10;;;;;;;13.30;7.25;;;;;;;;;;4991835;28;20074;-58
2023/12/04 14:17:39;;;;;;;11.82;6.97;;;;;;;;;;4990082;28;20481;-58
2023/12/04 14:20:11;;;;;;;11.13;6.22;;;;;;;;;;4990400;28;20044;-58
2023/12/04 14:22:37;;;;;;;11.13;6.47;;;;;;;;;;4991824;28;20034;-58
2023/12/04 14:25:03;;;;;;;11.48;7.18;;;;;;;;;;4995153;28;20030;-59
2023/12/04 14:27:29;;;;;;;11.40;6.80;;;;;;;;;;4999304;28;20033;-58